Casper, WY

7:26 PM MDT on May 22, 2015 (GMT -0600)
CY Ave | | Change Station
CLOSE
Current Station
Personal Weather Station
Location: Casper, WY
Elevation: 5227 ft
Nearby Weather Stations
Active Advisory: Special Statement

Elev 5227 ft 42.83 °N, 106.35 °W | Updated 11 minutes ago

Overcast
Overcast
50.2 °F
Feels Like 50.2 °F
N
6.0
Wind Variable Wind from South
Gusts 11.0 mph

Today
High -- | Low -- °F
--% Chance of Precip.
Yesterday
High -- | Low -- °F
Precip. -- in
5:36 AM 8:28 PM
Waxing Crescent, 25% visible
Pressure 29.89 in
Visibility 10.0 miles
Clouds Mostly Cloudy 3500 ft
Overcast 4300 ft
Dew Point 43 °F
Humidity 75%
Rainfall 0.22 in
Snow Depth Not available.
UV 0 out of 12
Pollen 3.80 out of 12
Air Quality Not available.
Flu Activity Sporadic
METAR KCPR 230053Z 09013KT 10SM BKN035 OVC043 09/07 A2995 RMK AO2 RAE23 SLP120 P0002 T00940072

More Conditions Fewer Conditions

Pressure 29.89 in
Visibility 10.0 miles
Clouds Mostly Cloudy 3500 ft
Overcast 4300 ft
Dew Point 43 °F
Humidity 75%
Rainfall 0.22 in
Snow Depth Not available.
UV 0 out of 12
Pollen 3.80 out of 12
Air Quality Not available.
Flu Activity Sporadic
METAR KCPR 230053Z 09013KT 10SM BKN035 OVC043 09/07 A2995 RMK AO2 RAE23 SLP120 P0002 T00940072

More Conditions Fewer Conditions

10-Day Weather Forecast

Almanac

Astronomy

May. 22, 2015 Rise Set
Actual Time
Civil Twilight
Nautical Twilight
Astronomical Twilight
Moon
Length of Visible Light
Length of Day
Tomorrow will be .
, % of the Moon is Illuminated

Today's Extremes

State Highs State Lows

Community

WunderPhotos

Upload Photos

1,823,355 photos uploaded!

WunderBlogs® & News

Nearby

Air Quality

  Air Quality AQ Index Pollutant
Not available.

Snow Depth

Station Depth Elevation

Earthquake Activity

City Distance Mag. Time & Date
Minimum magnitude displayed is 2.5.

Coastal Water Temperatures

Place Temperature

Stations

Nearby Weather Stations

Station Location Temp. Windchill Dew Point Humidity Wind Precip. Elev Updated Type
                   
Special Statement
Statement as of 6:13 PM MDT on May 22, 2015

Through 830 PM... scattered showers and isolated thunderstorms will
move west to northwest across the region. The main hazards from the
stronger activity... will be brief very heavy rainfall... and
occasional cloud to ground lightning. The brief heavy rainfall could
cause ponding of water on area roadways... and minor flooding in low
lying or poor drainage areas. Motorists are urged to slow down to
minimize the risk of hydroplaning.